Latest Weather Observations for Tindal

IDD60801

Issued at 7:35 pm CST Thursday 23 October 2014 (issued every 30 minutes, with the page automatically refreshed every 10 minutes)

About weather observations | Map of weather stations | Latest weather observations for NT | Other Formats
Station Details ID: 014932 Name: TINDAL RAAF Lat: -14.52 Lon: 132.38 Height: 133.6 m
Data from the previous 72 hours. | See also: Recent months at Tindal
Date/Time
CST
Temp
°C
App
Temp
°C
Dew
Point
Rel
Hum
%
Delta-T
°C
Wind Press
QNH
hPa
Press
MSL
hPa
Rain
since 9 am
mm
Dir
 
Spd
km/h
Gust
km/h
Spd
kts
Gust
kts
23/07:30pm 32.2 29.8 7.1 21 13.8 SSE 9 11 5 6 1010.7 - 0.0
23/07:00pm 34.3 31.8 6.6 18 15.2 ESE 9 11 5 6 1010.4 - 0.0
23/06:30pm 35.5 32.5 5.8 16 16.2 ESE 11 17 6 9 1010.2 - 0.0
23/06:00pm 36.5 33.1 5.7 15 16.9 ESE 13 20 7 11 1009.7 1008.6 0.0
23/05:30pm 37.2 32.3 5.3 14 17.4 ESE 20 28 11 15 1009.5 - 0.0
23/05:00pm 37.3 33.6 4.3 13 17.8 ENE 13 20 7 11 1009.3 - 0.0
23/04:30pm 38.0 33.2 4.8 13 18.1 E 19 30 10 16 1009.3 - 0.0
23/04:00pm 38.3 33.4 5.0 13 18.2 SSE 20 37 11 20 1009.5 - 0.0
23/03:30pm 37.3 31.3 5.3 14 17.5 SE 26 37 14 20 1009.9 - 0.0
23/03:00pm 37.6 31.8 4.5 13 17.9 E 24 33 13 18 1010.2 1009.1 0.0
23/02:30pm 37.5 32.7 4.4 13 17.9 ESE 19 28 10 15 1010.3 - 0.0
23/02:00pm 36.8 34.1 3.9 13 17.6 NNE 7 13 4 7 1010.9 - 0.0
23/01:30pm 36.6 31.4 3.7 13 17.5 E 20 41 11 22 1011.6 - 0.0
23/01:00pm 36.2 31.4 4.5 14 17.0 E 19 35 10 19 1012.1 - 0.0
23/12:30pm 36.1 31.1 4.4 14 17.0 ENE 20 33 11 18 1012.7 - 0.0
23/12:00pm 35.3 30.9 7.4 18 15.6 ENE 20 30 11 16 1013.4 1012.4 0.0
23/11:30am 34.6 32.1 9.8 22 14.3 NE 13 26 7 14 1014.0 - 0.0
23/11:00am 33.3 30.3 10.6 25 13.2 ENE 17 24 9 13 1014.7 - 0.0
23/10:30am 32.3 30.6 12.5 30 11.8 NE 13 20 7 11 1015.1 - 0.0
23/10:00am 32.7 30.9 13.4 31 11.7 E 15 37 8 20 1015.3 - 0.0
23/09:30am 31.0 30.9 15.0 38 9.9 ENE 9 13 5 7 1015.7 - 0.0
23/09:00am 29.6 30.8 16.8 46 8.1 N 6 11 3 6 1015.9 1014.9 0.0
23/08:30am 28.5 31.2 19.4 57 5.9 N 4 9 2 5 1016.0 - 0.0
23/08:00am 27.3 29.9 20.1 64 4.7 SSW 6 7 3 4 1015.8 - 0.0
23/07:30am 25.7 27.5 18.4 64 4.7 SSE 6 7 3 4 1015.5 - 0.0
23/07:00am 23.4 24.3 16.7 66 4.1 SSE 7 11 4 6 1015.0 - 0.0
23/06:30am 22.0 23.7 18.0 78 2.5 SE 6 7 3 4 1014.6 - 0.0
23/06:00am 22.5 24.8 17.6 74 3.1 ESE 2 6 1 3 1014.3 1013.3 0.0
23/05:30am 24.5 27.1 19.3 73 3.3 N 4 7 2 4 1013.8 - 0.0
23/05:00am 25.3 27.8 20.3 74 3.3 N 7 9 4 5 1013.3 - 0.0
23/04:30am 25.5 27.6 20.1 72 3.5 NNW 9 13 5 7 1013.1 - 0.0
23/04:00am 25.5 27.3 19.6 70 3.8 NNW 9 11 5 6 1013.1 - 0.0
23/03:30am 26.0 27.4 17.9 61 5.1 N 7 11 4 6 1013.0 - 0.0
23/03:00am 26.8 27.1 16.1 52 6.6 N 9 11 5 6 1013.2 1012.2 0.0
23/02:30am 27.9 26.6 10.1 33 10.0 N 7 9 4 5 1013.2 - 0.0
23/02:00am 29.2 26.2 7.7 26 11.7 N 13 19 7 10 1013.3 - 0.0
23/01:30am 27.9 26.1 7.2 27 11.1 NE 6 9 3 5 1013.6 - 0.0
23/01:00am 29.1 25.6 7.1 25 11.9 NE 15 22 8 12 1013.4 - 0.0
23/12:30am 29.3 26.1 6.7 24 12.1 ENE 13 20 7 11 1013.3 - 0.0
23/12:00am 29.0 25.8 7.0 25 11.8 E 13 17 7 9 1013.6 1012.6 0.0
 
Date/Time
CST
Temp
°C
App
Temp
°C
Dew
Point
Rel
Hum
%
Delta-T
°C
Wind Press
QNH
hPa
Press
MSL
hPa
Rain
since 9 am
mm
Dir
 
Spd
km/h
Gust
km/h
Spd
kts
Gust
kts
22/11:30pm 30.1 26.1 6.7 23 12.6 ENE 17 22 9 12 1013.6 - 0.0
22/11:00pm 29.9 26.6 6.5 23 12.6 E 13 17 7 9 1013.6 - 0.0
22/10:30pm 30.4 26.7 6.3 22 12.9 E 15 19 8 10 1013.5 - 0.0
22/10:00pm 30.9 26.9 6.7 22 13.1 E 17 22 9 12 1013.1 - 0.0
22/09:30pm 28.6 26.8 7.8 27 11.3 E 7 9 4 5 1012.7 - 0.0
22/09:00pm 29.5 26.8 7.4 25 12.0 E 11 13 6 7 1012.4 1011.3 0.0
22/08:30pm 29.8 28.0 7.1 24 12.3 ESE 6 7 3 4 1012.1 - 0.0
22/08:00pm 30.3 28.3 6.9 23 12.7 ESE 7 9 4 5 1011.8 - 0.0
22/07:30pm 32.4 29.7 5.8 19 14.3 E 9 11 5 6 1011.5 - 0.0
22/07:00pm 33.5 30.3 5.1 17 15.2 E 11 15 6 8 1011.1 - 0.0
22/06:30pm 35.3 31.3 4.8 15 16.4 E 15 20 8 11 1010.8 - 0.0
22/06:00pm 36.4 31.4 3.6 13 17.4 E 19 28 10 15 1010.3 1009.2 0.0
22/05:30pm 37.0 33.0 5.1 14 17.4 SE 15 24 8 13 1010.1 - 0.0
22/05:00pm 37.4 32.9 4.4 13 17.8 SE 17 26 9 14 1010.1 - 0.0
22/04:30pm 37.9 34.7 6.8 15 17.5 E 13 24 7 13 1010.1 - 0.0
22/04:00pm 37.6 33.0 5.6 14 17.6 ESE 19 30 10 16 1010.2 - 0.0
22/03:30pm 37.9 35.5 6.8 15 17.5 S 9 17 5 9 1010.3 - 0.0
22/03:00pm 37.7 34.3 7.6 16 17.1 ESE 15 28 8 15 1010.7 1009.6 0.0
22/02:30pm 36.7 34.7 8.5 18 16.1 E 9 20 5 11 1011.2 - 0.0
22/02:00pm 37.0 34.6 8.8 18 16.2 ESE 11 24 6 13 1011.7 - 0.0
22/01:30pm 36.9 32.8 7.8 17 16.5 ESE 19 32 10 17 1012.3 - 0.0
22/01:00pm 36.0 33.8 10.9 22 14.9 SSE 13 22 7 12 1013.0 - 0.0
22/12:30pm 35.3 33.7 11.7 24 14.1 E 11 19 6 10 1013.7 - 0.0
22/12:00pm 35.0 33.0 12.6 26 13.5 E 15 26 8 14 1014.4 1013.4 0.0
22/11:30am 34.2 32.9 13.6 29 12.6 E 13 24 7 13 1014.9 - 0.0
22/11:00am 33.2 32.7 14.8 33 11.4 ENE 11 24 6 13 1015.4 - 0.0
22/10:30am 32.0 31.6 15.1 36 10.5 ENE 11 24 6 13 1016.0 - 0.0
22/10:00am 30.7 32.5 17.4 45 8.5 N 4 11 2 6 1016.4 - 0.0
22/09:30am 30.1 32.3 19.5 53 7.0 NW 7 15 4 8 1016.7 - 0.0
22/09:00am 28.7 30.1 19.6 58 6.0 N 11 15 6 8 1016.9 1015.8 0.0
22/08:30am 27.9 29.4 19.7 61 5.4 N 11 17 6 9 1016.7 - 0.0
22/08:00am 27.3 30.7 19.4 62 5.1 CALM 0 11 0 6 1016.6 - 0.0
22/07:30am 26.4 28.8 18.0 60 5.3 SE 2 7 1 4 1016.3 - 0.0
22/07:00am 24.1 25.7 17.8 68 4.0 ESE 6 9 3 5 1016.0 - 0.0
22/06:30am 22.3 23.0 17.0 72 3.3 SE 9 11 5 6 1015.6 - 0.0
22/06:00am 22.5 23.6 17.2 72 3.3 SSE 7 11 4 6 1015.2 1014.2 0.0
22/05:30am 22.5 23.3 17.2 72 3.3 SE 9 11 5 6 1014.7 - 0.0
22/05:00am 23.5 25.9 17.0 67 4.0 CALM 0 0 0 0 1013.6 - 0.0
22/04:30am 23.9 26.5 17.4 67 4.1 CALM 0 0 0 0 1013.4 - 0.0
22/04:00am 24.6 26.0 17.3 64 4.6 N 6 7 3 4 1013.2 - 0.0
22/03:30am 26.1 27.5 17.7 60 5.3 N 7 9 4 5 1012.9 - 0.0
22/03:00am 26.7 27.3 17.7 57 5.7 N 11 15 6 8 1013.0 1012.0 0.0
22/02:30am 26.9 27.2 17.1 55 6.2 NNW 11 19 6 10 1013.2 - 0.0
22/02:00am 28.0 26.2 12.0 37 9.3 NNW 13 20 7 11 1013.3 - 0.0
22/01:30am 27.5 25.7 9.3 32 10.1 NNE 9 13 5 7 1013.1 - 0.0
22/01:00am 27.8 25.1 9.1 31 10.4 NNE 13 15 7 8 1013.4 - 0.0
22/12:30am 27.8 25.3 8.1 29 10.7 NE 11 15 6 8 1013.8 - 0.0
22/12:00am 27.9 24.9 7.7 28 10.9 ENE 13 15 7 8 1014.0 1013.0 0.0
 
Date/Time
CST
Temp
°C
App
Temp
°C
Dew
Point
Rel
Hum
%
Delta-T
°C
Wind Press
QNH
hPa
Press
MSL
hPa
Rain
since 9 am
mm
Dir
 
Spd
km/h
Gust
km/h
Spd
kts
Gust
kts
21/11:30pm 24.9 21.7 8.4 35 8.9 SE 15 17 8 9 1014.3 - 0.0
21/11:00pm 25.8 25.6 9.2 35 9.1 CALM 0 0 0 0 1014.0 - 0.0
21/10:30pm 26.3 24.6 8.3 32 9.8 E 7 7 4 4 1014.1 - 0.0
21/10:00pm 26.8 25.1 8.3 31 10.1 E 7 9 4 5 1013.8 - 0.0
21/09:30pm 27.8 26.2 8.1 29 10.7 E 6 7 3 4 1013.5 - 0.0
21/09:00pm 29.9 27.5 7.2 24 12.3 E 9 11 5 6 1013.4 1012.4 0.0
21/08:30pm 29.9 27.7 7.7 25 12.1 E 9 13 5 7 1013.1 - 0.0
21/08:00pm 30.2 28.0 8.0 25 12.2 E 9 11 5 6 1012.8 - 0.0
21/07:30pm 31.5 29.9 7.9 23 13.1 SE 6 9 3 5 1012.6 - 0.0
21/07:00pm 32.8 30.4 6.9 20 14.2 E 9 11 5 6 1012.3 - 0.0
21/06:30pm 34.2 31.3 6.5 18 15.2 SE 11 20 6 11 1012.0 - 0.0
21/06:00pm 35.4 32.4 7.5 18 15.6 SE 13 19 7 10 1011.8 1010.7 0.0
21/05:30pm 36.1 32.8 8.0 18 15.9 SE 15 22 8 12 1011.6 - 0.0
21/05:00pm 35.9 32.6 7.9 18 15.8 SE 15 26 8 14 1011.4 - 0.0
21/04:30pm 37.3 34.0 8.2 17 16.6 SSE 15 35 8 19 1011.3 - 0.0
21/04:00pm 36.7 32.0 7.7 17 16.4 S 22 32 12 17 1011.1 - 0.0
21/03:30pm 37.2 32.9 7.2 16 16.9 ESE 19 39 10 21 1011.3 - 0.0
21/03:00pm 37.3 33.8 7.3 16 16.9 SSE 15 24 8 13 1011.6 1010.5 0.0
21/02:30pm 37.4 33.3 6.4 15 17.3 ESE 17 39 9 21 1012.1 - 0.0
21/02:00pm 36.8 31.5 6.9 16 16.7 E 24 46 13 25 1012.5 - 0.0
21/01:30pm 36.0 31.5 7.1 17 16.1 E 20 32 11 17 1013.3 - 0.0
21/01:00pm 36.3 33.4 8.2 18 16.0 ESE 13 26 7 14 1013.9 - 0.0
21/12:30pm 36.1 32.6 8.8 19 15.7 ESE 17 24 9 13 1014.6 - 0.0
21/12:00pm 35.1 31.6 8.8 20 15.0 ENE 17 22 9 12 1015.2 1014.2 0.0
21/11:30am 34.9 30.4 8.6 20 15.0 E 22 32 12 17 1015.7 - 0.0
21/11:00am 34.4 31.6 11.5 25 13.6 ENE 17 30 9 16 1016.3 - 0.0
21/10:30am 33.0 31.7 12.6 29 12.2 E 11 20 6 11 1016.7 - 0.0
21/10:00am 31.7 31.5 13.5 33 11.0 NE 7 19 4 10 1017.2 - 0.0
21/09:30am 30.5 30.6 15.4 40 9.4 WNW 9 15 5 8 1017.2 - 0.0
21/09:00am 29.4 30.4 16.9 47 7.9 NNW 7 13 4 7 1017.3 1016.2 0.0
21/08:30am 29.0 29.6 15.9 45 8.1 W 7 11 4 6 1017.1 - 0.0
21/08:00am 27.8 27.7 12.2 38 9.1 SSE 4 7 2 4 1017.0 - 0.0
21/07:30am 25.5 25.2 11.3 41 8.1 S 4 9 2 5 1016.8 - 0.0
21/07:00am 23.9 23.4 10.9 44 7.3 S 4 6 2 3 1016.6 - 0.0
21/06:30am 22.7 21.6 10.8 47 6.6 ESE 7 9 4 5 1016.2 - 0.0
21/06:00am 22.6 21.1 10.4 46 6.7 SE 9 11 5 6 1015.8 1014.8 0.0
21/05:30am 22.6 21.2 11.0 48 6.5 SE 9 9 5 5 1015.6 - 0.0
21/05:00am 22.9 21.2 11.3 48 6.5 SSE 11 13 6 7 1015.2 - 0.0
21/04:30am 22.4 21.3 11.8 51 6.0 SE 9 13 5 7 1014.5 - 0.0
21/04:00am 23.6 23.7 10.3 43 7.4 CALM 0 0 0 0 1013.9 - 0.0
21/03:30am 25.4 25.0 12.3 44 7.6 NNW 6 7 3 4 1013.5 - 0.0
21/03:00am 26.6 25.1 10.7 37 9.0 N 9 11 5 6 1013.4 1012.4 0.0
21/02:30am 26.9 25.7 10.2 35 9.4 N 7 11 4 6 1013.6 - 0.0
21/02:00am 27.0 25.3 9.8 34 9.6 NNW 9 13 5 7 1013.8 - 0.0
21/01:30am 28.1 26.0 8.4 29 10.8 N 9 13 5 7 1013.8 - 0.0
21/01:00am 28.8 26.1 9.0 29 11.0 NE 13 19 7 10 1013.6 - 0.0
21/12:30am 29.0 26.1 9.7 30 10.9 NE 15 20 8 11 1013.8 - 0.0
21/12:00am 29.6 25.3 9.2 28 11.4 NE 22 28 12 15 1013.7 1012.7 0.0
 
Date/Time
CST
Temp
°C
App
Temp
°C
Dew
Point
Rel
Hum
%
Delta-T
°C
Wind Press
QNH
hPa
Press
MSL
hPa
Rain
since 9 am
mm
Dir
 
Spd
km/h
Gust
km/h
Spd
kts
Gust
kts
20/11:30pm 30.0 25.9 7.8 25 12.2 ENE 19 26 10 14 1014.0 - 0.0
20/11:00pm 30.2 26.5 8.0 25 12.2 ENE 17 22 9 12 1014.0 - 0.0
20/10:30pm 30.1 27.7 8.5 26 12.0 ENE 11 15 6 8 1014.0 - 0.0
20/10:00pm 30.3 27.5 8.7 26 12.0 E 13 17 7 9 1013.8 - 0.0
20/09:30pm 31.3 28.4 8.3 24 12.8 ENE 13 19 7 10 1013.3 - 0.0
20/09:00pm 30.7 28.6 8.4 25 12.4 ENE 9 15 5 8 1012.9 1011.9 0.0
20/08:30pm 30.9 29.0 7.4 23 12.9 E 7 13 4 7 1012.6 - 0.0
20/08:00pm 31.6 29.0 5.9 20 13.8 E 9 13 5 7 1012.1 - 0.0

Other Formats:

Comma delimited format used in spreadsheet applications
http://www.bom.gov.au/fwo/IDD60801/IDD60801.94131.axf

JavaScript Object Notation format (JSON) in row-major order
http://www.bom.gov.au/fwo/IDD60801/IDD60801.94131.json